This is the latest recevied weather packets stored in our database for station/object N9PBY-2. If no packets are shown the sender has not sent any weather packets the latest 1 day(s).
| Time | Temp. | Humidity | Pressure | Rain* | Wind** | Luminosity | Snow |
|---|---|---|---|---|---|---|---|
| 1778030406 | 9.44° C | 32% | 1009.1 hPa | 0 mm | 1.79 m/s, 357° | - | - |
| 1778029806 | 9.44° C | 32% | 1009 hPa | 0 mm | 2.68 m/s, 338° | - | - |
| 1778029206 | 10° C | 31% | 1008.9 hPa | 0 mm | 2.68 m/s, 349° | - | - |
| 1778028607 | 10° C | 31% | 1008.7 hPa | 0 mm | 2.24 m/s, 347° | - | - |
| 1778028006 | 10.56° C | 32% | 1008.6 hPa | 0 mm | 1.79 m/s, 351° | - | - |
| 1778027407 | 10.56° C | 30% | 1008.5 hPa | 0 mm | 2.68 m/s, 349° | - | - |
| 1778026806 | 11.11° C | 29% | 1008.3 hPa | 0 mm | 1.79 m/s, 357° | - | - |
| 1778026206 | 11.11° C | 27% | 1008.2 hPa | 0 mm | 1.34 m/s, 9° | - | - |
| 1778025607 | 11.11° C | 25% | 1008.3 hPa | 0 mm | 1.34 m/s, 316° | - | - |
| 1778025007 | 11.67° C | 25% | 1008.2 hPa | 0 mm | 0.89 m/s, 330° | - | - |
| 1778024407 | 11.67° C | 24% | 1008.3 hPa | 0 mm | 1.79 m/s, 265° | - | - |
| 1778023806 | 11.67° C | 22% | 1008.2 hPa | 0 mm | 1.79 m/s, 296° | - | - |
| 1778023206 | 12.22° C | 23% | 1008.1 hPa | 0 mm | 1.34 m/s, 291° | - | - |
| 1778022607 | 12.22° C | 25% | 1008.1 hPa | 0 mm | 0.45 m/s, 277° | - | - |
| 1778022007 | 12.22° C | 23% | 1008.1 hPa | 0 mm | 1.79 m/s, 272° | - | - |
| 1778021406 | 12.22° C | 23% | 1008 hPa | 0 mm | 1.34 m/s, 273° | - | - |
| 1778020807 | 12.22° C | 21% | 1008 hPa | 0 mm | 1.79 m/s, 290° | - | - |
| 1778020216 | 12.78° C | 23% | 1007.7 hPa | 0 mm | 1.79 m/s, 299° | - | - |
| 1778019606 | 13.33° C | 20% | 1007.8 hPa | 0 mm | 1.34 m/s, 287° | - | - |
| 1778019007 | 13.33° C | 21% | 1007.7 hPa | 0 mm | 1.79 m/s, 298° | - | - |
| 1778018407 | 13.89° C | 19% | 1007.8 hPa | 0 mm | 1.79 m/s, 270° | - | - |
| 1778017807 | 14.44° C | 20% | 1007.7 hPa | 0 mm | 1.34 m/s, 278° | - | - |
| 1778017206 | 14.44° C | 21% | 1007.6 hPa | 0 mm | 1.34 m/s, 334° | - | - |
| 1778016607 | 14.44° C | 21% | 1007.6 hPa | 0 mm | 1.79 m/s, 260° | - | - |
| 1778016006 | 14.44° C | 19% | 1007.6 hPa | 0 mm | 1.79 m/s, 288° | - | - |
* Rain latest hour (hover to see other rain measurements)
** Current wind speed in m/s (hover to see current wind gust speed)